Onde está Quinta da Boavista en Portugal?

 

Quinta da Boavista está situado na região Santarem em Portugal!

Buscar o nome de uma cidade:

Quinh Van, Quinguri, Quintela, Quintinero, Quinta Real Aguascalientes

Aqui você vai encontrar a localização de Quinta da Boavista em um mapa.
Para ver como ele atualmente parece, abaixo estão algumas fotos da região, com webcams online.
Você também pode encontrar a distância para as principais cidades da região e de cidades do resto do Portugal.

Todos os lugares do mundo chamado .


Onde está Quinta da Boavista no mapa?




Webcams perto Quinta da Boavista

Vasco Carão › South: Garrocheira, Benavente − Airport.


Vasco Carão › South: Garrocheira, Benavente − Airport - Dia
Actual
Vasco Carão › South: Garrocheira, Benavente − Airport - Actual

Benavente › North-East: AIrport, METAR: BENAV 180005Z 36004KT 17/14 Q1015.


Benavente › North-East: AIrport, METAR: BENAV 180005Z 36004KT 17/14 Q1015 - Dia
Actual
Benavente › North-East: AIrport, METAR: BENAV 180005Z 36004KT 17/14 Q1015 - Actual

Abrantes › North-West: › North-West: Zona Alta (Torre).


Abrantes › North-West: › North-West: Zona Alta (Torre) - Dia
Actual
Abrantes › North-West: › North-West: Zona Alta (Torre) - Actual

Webcams provided by webcams.travel


Distâncias

Onde está Quinta da Boavista em relação a outros lugares?

Top 10 cidades em Santarem e distância de Quinta da Boavista.

Cidade#Populaçãokmmilhas
Santarém12938585
Entroncamento2198872415
Tomar3191684025
Torres Novas4145262314
Samora Correia5141544528
Abrantes6136464226
Ourém7127293924
Rio Maior8120642717
Fátima9117983723
Almeirim1011556106

Top 10 cidades em Portugal e distância de Quinta da Boavista.

Cidade # Populaçãokmmilhas
Lisbon15177987748
Porto2249630208129
Amadora31788567949
Braga4121393253157
Setúbal51171098754
Coimbra610658010364
Queluz71033988050
Funchal8980411049652
Vila Nova de Gaia970810206128
Loures10662306943



Info

Estatística e Geografia

Portugal é composta de 15299 cidades em 20 regiões.

A região de Santarem tem 1174 cidades.

Onde está Quinta da Boavista en Portugal?